sensor_id;sensor_type;location;lat;lon;timestamp;pressure;altitude;pressure_sealevel;temperature;humidity
69574;BME280;62840;52.366;5.980;2023-08-12T00:01:55;101711.56;;;20.53;72.08
69574;BME280;62840;52.366;5.980;2023-08-12T00:04:21;101703.75;;;20.50;71.82
69574;BME280;62840;52.366;5.980;2023-08-12T00:06:50;101703.13;;;20.48;71.76
69574;BME280;62840;52.366;5.980;2023-08-12T00:09:15;101705.81;;;20.48;71.73
69574;BME280;62840;52.366;5.980;2023-08-12T00:11:41;101706.81;;;20.47;71.93
69574;BME280;62840;52.366;5.980;2023-08-12T00:14:07;101709.88;;;20.44;71.92
69574;BME280;62840;52.366;5.980;2023-08-12T00:16:32;101707.19;;;20.44;72.24
69574;BME280;62840;52.366;5.980;2023-08-12T00:18:58;101703.78;;;20.42;72.23
69574;BME280;62840;52.366;5.980;2023-08-12T00:21:25;101704.63;;;20.42;72.38
69574;BME280;62840;52.366;5.980;2023-08-12T00:23:53;101695.66;;;20.42;72.38
69574;BME280;62840;52.366;5.980;2023-08-12T00:26:19;101691.25;;;20.41;72.37
69574;BME280;62840;52.366;5.980;2023-08-12T00:28:45;101698.66;;;20.39;72.06
69574;BME280;62840;52.366;5.980;2023-08-12T00:31:13;101700.72;;;20.37;72.03
69574;BME280;62840;52.366;5.980;2023-08-12T00:33:39;101713.25;;;20.38;72.22
69574;BME280;62840;52.366;5.980;2023-08-12T00:36:05;101700.72;;;20.37;72.39
69574;BME280;62840;52.366;5.980;2023-08-12T00:38:32;101700.72;;;20.37;72.08
69574;BME280;62840;52.366;5.980;2023-08-12T00:41:00;101697.34;;;20.35;72.64
69574;BME280;62840;52.366;5.980;2023-08-12T00:43:26;101697.50;;;20.33;72.47
69574;BME280;62840;52.366;5.980;2023-08-12T00:45:53;101682.44;;;20.31;72.46
69574;BME280;62840;52.366;5.980;2023-08-12T00:48:18;101681.75;;;20.29;72.12
69574;BME280;62840;52.366;5.980;2023-08-12T00:50:44;101683.44;;;20.30;72.72
69574;BME280;62840;52.366;5.980;2023-08-12T00:53:11;101678.00;;;20.30;72.29
69574;BME280;62840;52.366;5.980;2023-08-12T00:55:38;101673.47;;;20.30;72.51
69574;BME280;62840;52.366;5.980;2023-08-12T00:58:08;101681.75;;;20.29;72.49
69574;BME280;62840;52.366;5.980;2023-08-12T01:00:34;101668.38;;;20.27;72.47
69574;BME280;62840;52.366;5.980;2023-08-12T01:03:00;101660.44;;;20.26;72.69
69574;BME280;62840;52.366;5.980;2023-08-12T01:05:26;101664.97;;;20.25;72.60
69574;BME280;62840;52.366;5.980;2023-08-12T01:07:52;101671.59;;;20.23;72.68
69574;BME280;62840;52.366;5.980;2023-08-12T01:10:18;101668.88;;;20.23;72.72
69574;BME280;62840;52.366;5.980;2023-08-12T01:12:52;101663.47;;;20.23;72.69
69574;BME280;62840;52.366;5.980;2023-08-12T01:15:27;101659.91;;;20.22;72.80
69574;BME280;62840;52.366;5.980;2023-08-12T01:17:54;101657.38;;;20.20;72.49
69574;BME280;62840;52.366;5.980;2023-08-12T01:20:23;101649.44;;;20.19;72.65
69574;BME280;62840;52.366;5.980;2023-08-12T01:22:56;101650.59;;;20.16;72.44
69574;BME280;62840;52.366;5.980;2023-08-12T01:25:25;101646.38;;;20.14;72.87
69574;BME280;62840;52.366;5.980;2023-08-12T01:27:51;101652.97;;;20.11;72.99
69574;BME280;62840;52.366;5.980;2023-08-12T01:30:18;101642.13;;;20.11;72.77
69574;BME280;62840;52.366;5.980;2023-08-12T01:32:54;101641.31;;;20.11;72.56
69574;BME280;62840;52.366;5.980;2023-08-12T01:35:30;101640.63;;;20.09;72.77
69574;BME280;62840;52.366;5.980;2023-08-12T01:38:02;101641.66;;;20.08;72.73
69574;BME280;62840;52.366;5.980;2023-08-12T01:40:35;101639.09;;;20.06;72.99
69574;BME280;62840;52.366;5.980;2023-08-12T01:43:02;101637.41;;;20.05;72.59
69574;BME280;62840;52.366;5.980;2023-08-12T01:45:30;101633.00;;;20.04;72.94
69574;BME280;62840;52.366;5.980;2023-08-12T01:47:56;101632.34;;;20.02;72.55
69574;BME280;62840;52.366;5.980;2023-08-12T01:50:22;101623.53;;;20.00;72.66
69574;BME280;62840;52.366;5.980;2023-08-12T01:52:47;101622.84;;;19.98;73.07
69574;BME280;62840;52.366;5.980;2023-08-12T01:55:13;101630.97;;;19.98;72.69
69574;BME280;62840;52.366;5.980;2023-08-12T01:57:41;101633.00;;;19.96;72.65
69574;BME280;62840;52.366;5.980;2023-08-12T02:00:08;101627.59;;;19.96;72.85
69574;BME280;62840;52.366;5.980;2023-08-12T02:02:34;101633.00;;;19.96;72.78
69574;BME280;62840;52.366;5.980;2023-08-12T02:05:00;101620.50;;;19.95;72.88
69574;BME280;62840;52.366;5.980;2023-08-12T02:07:25;101619.66;;;19.94;72.61
69574;BME280;62840;52.366;5.980;2023-08-12T02:09:51;101618.13;;;19.92;72.67
69574;BME280;62840;52.366;5.980;2023-08-12T02:12:17;101617.25;;;19.91;72.71
69574;BME280;62840;52.366;5.980;2023-08-12T02:14:45;101615.44;;;19.92;72.62
69574;BME280;62840;52.366;5.980;2023-08-12T02:17:11;101615.59;;;19.90;73.00
69574;BME280;62840;52.366;5.980;2023-08-12T02:19:37;101602.22;;;19.89;73.16
69574;BME280;62840;52.366;5.980;2023-08-12T02:22:03;101604.91;;;19.89;72.84
69574;BME280;62840;52.366;5.980;2023-08-12T02:24:29;101603.25;;;19.88;73.19
69574;BME280;62840;52.366;5.980;2023-08-12T02:26:55;101594.25;;;19.87;73.18
69574;BME280;62840;52.366;5.980;2023-08-12T02:29:21;101603.25;;;19.88;73.13
69574;BME280;62840;52.366;5.980;2023-08-12T02:31:49;101601.38;;;19.88;72.69
69574;BME280;62840;52.366;5.980;2023-08-12T02:34:15;101600.34;;;19.89;72.67
69574;BME280;62840;52.366;5.980;2023-08-12T02:36:41;101599.50;;;19.89;72.88
69574;BME280;62840;52.366;5.980;2023-08-12T02:39:06;101588.69;;;19.89;72.77
69574;BME280;62840;52.366;5.980;2023-08-12T02:41:32;101586.13;;;19.87;73.07
69574;BME280;62840;52.366;5.980;2023-08-12T02:43:58;101584.44;;;19.86;72.85
69574;BME280;62840;52.366;5.980;2023-08-12T02:46:24;101584.44;;;19.86;72.70
69574;BME280;62840;52.366;5.980;2023-08-12T02:48:52;101575.31;;;19.87;72.90
69574;BME280;62840;52.366;5.980;2023-08-12T02:51:18;101577.00;;;19.88;72.60
69574;BME280;62840;52.366;5.980;2023-08-12T02:53:44;101576.16;;;19.88;72.72
69574;BME280;62840;52.366;5.980;2023-08-12T02:56:09;101568.03;;;19.88;72.80
69574;BME280;62840;52.366;5.980;2023-08-12T02:58:35;101559.94;;;19.88;73.23
69574;BME280;62840;52.366;5.980;2023-08-12T03:01:01;101561.94;;;19.86;73.25
69574;BME280;62840;52.366;5.980;2023-08-12T03:03:27;101558.22;;;19.87;72.87
69574;BME280;62840;52.366;5.980;2023-08-12T03:05:55;101559.94;;;19.88;73.28
69574;BME280;62840;52.366;5.980;2023-08-12T03:08:21;101567.03;;;19.89;73.22
69574;BME280;62840;52.366;5.980;2023-08-12T03:10:46;101561.94;;;19.86;73.21
69574;BME280;62840;52.366;5.980;2023-08-12T03:13:12;101562.63;;;19.88;73.40
69574;BME280;62840;52.366;5.980;2023-08-12T03:15:38;101561.94;;;19.86;73.23
69574;BME280;62840;52.366;5.980;2023-08-12T03:18:04;101552.81;;;19.87;73.06
69574;BME280;62840;52.366;5.980;2023-08-12T03:20:30;101550.09;;;19.87;73.29
69574;BME280;62840;52.366;5.980;2023-08-12T03:22:58;101549.09;;;19.88;73.07
69574;BME280;62840;52.366;5.980;2023-08-12T03:25:24;101540.63;;;19.83;73.44
69574;BME280;62840;52.366;5.980;2023-08-12T03:27:50;101543.00;;;19.86;73.13
69574;BME280;62840;52.366;5.980;2023-08-12T03:30:15;101538.59;;;19.85;73.40
69574;BME280;62840;52.366;5.980;2023-08-12T03:32:41;101536.75;;;19.85;73.48
69574;BME280;62840;52.366;5.980;2023-08-12T03:35:08;101538.59;;;19.85;73.24
69574;BME280;62840;52.366;5.980;2023-08-12T03:37:33;101533.19;;;19.85;73.24
69574;BME280;62840;52.366;5.980;2023-08-12T03:40:02;101534.88;;;19.86;73.57
69574;BME280;62840;52.366;5.980;2023-08-12T03:42:28;101528.63;;;19.85;73.57
69574;BME280;62840;52.366;5.980;2023-08-12T03:44:54;101527.44;;;19.88;73.44
69574;BME280;62840;52.366;5.980;2023-08-12T03:47:20;101532.84;;;19.88;73.07
69574;BME280;62840;52.366;5.980;2023-08-12T03:49:45;101527.44;;;19.88;73.02
69574;BME280;62840;52.366;5.980;2023-08-12T03:52:11;101522.88;;;19.88;73.54
69574;BME280;62840;52.366;5.980;2023-08-12T03:54:37;101525.41;;;19.90;73.42
69574;BME280;62840;52.366;5.980;2023-08-12T03:57:05;101525.41;;;19.90;73.29
69574;BME280;62840;52.366;5.980;2023-08-12T03:59:31;101523.69;;;19.89;73.49
69574;BME280;62840;52.366;5.980;2023-08-12T04:01:57;101522.88;;;19.88;73.45
69574;BME280;62840;52.366;5.980;2023-08-12T04:04:22;101527.44;;;19.88;73.52
69574;BME280;62840;52.366;5.980;2023-08-12T04:06:48;101525.56;;;19.88;73.46
69574;BME280;62840;52.366;5.980;2023-08-12T04:09:14;101519.31;;;19.88;73.47
69574;BME280;62840;52.366;5.980;2023-08-12T04:11:40;101518.28;;;19.89;73.74
69574;BME280;62840;52.366;5.980;2023-08-12T04:14:08;101509.16;;;19.90;73.32
69574;BME280;62840;52.366;5.980;2023-08-12T04:16:34;101510.84;;;19.91;73.48
69574;BME280;62840;52.366;5.980;2023-08-12T04:19:00;101505.44;;;19.91;73.60
69574;BME280;62840;52.366;5.980;2023-08-12T04:21:25;101507.13;;;19.92;73.63
69574;BME280;62840;52.366;5.980;2023-08-12T04:23:51;101500.69;;;19.93;73.45
69574;BME280;62840;52.366;5.980;2023-08-12T04:26:17;101495.28;;;19.93;73.34
69574;BME280;62840;52.366;5.980;2023-08-12T04:28:43;101493.41;;;19.93;73.58
69574;BME280;62840;52.366;5.980;2023-08-12T04:31:11;101483.41;;;19.94;73.50
69574;BME280;62840;52.366;5.980;2023-08-12T04:33:37;101483.41;;;19.94;73.39
69574;BME280;62840;52.366;5.980;2023-08-12T04:36:03;101479.03;;;19.93;73.49
69574;BME280;62840;52.366;5.980;2023-08-12T04:38:29;101481.72;;;19.93;73.89
69574;BME280;62840;52.366;5.980;2023-08-12T04:40:58;101486.13;;;19.94;73.60
69574;BME280;62840;52.366;5.980;2023-08-12T04:43:25;101490.53;;;19.95;73.72
69574;BME280;62840;52.366;5.980;2023-08-12T04:45:52;101476.31;;;19.93;73.49
69574;BME280;62840;52.366;5.980;2023-08-12T04:48:20;101478.00;;;19.94;73.92
69574;BME280;62840;52.366;5.980;2023-08-12T04:50:46;101478.00;;;19.94;73.78
69574;BME280;62840;52.366;5.980;2023-08-12T04:53:12;101479.69;;;19.95;73.64
69574;BME280;62840;52.366;5.980;2023-08-12T04:55:37;101468.88;;;19.95;73.93
69574;BME280;62840;52.366;5.980;2023-08-12T04:58:03;101466.84;;;19.97;74.07
69574;BME280;62840;52.366;5.980;2023-08-12T05:00:29;101457.69;;;19.98;73.86
69574;BME280;62840;52.366;5.980;2023-08-12T05:02:55;101455.66;;;20.00;74.25
69574;BME280;62840;52.366;5.980;2023-08-12T05:05:25;101448.19;;;20.02;74.32
69574;BME280;62840;52.366;5.980;2023-08-12T05:07:51;101448.72;;;20.06;73.89
69574;BME280;62840;52.366;5.980;2023-08-12T05:10:17;101447.50;;;20.08;74.04
69574;BME280;62840;52.366;5.980;2023-08-12T05:12:43;101450.88;;;20.10;73.96
69574;BME280;62840;52.366;5.980;2023-08-12T05:15:09;101444.28;;;20.13;74.42
69574;BME280;62840;52.366;5.980;2023-08-12T05:17:36;101435.97;;;20.14;74.00
69574;BME280;62840;52.366;5.980;2023-08-12T05:20:01;101424.78;;;20.17;74.02
69574;BME280;62840;52.366;5.980;2023-08-12T05:22:30;101431.56;;;20.21;74.60
69574;BME280;62840;52.366;5.980;2023-08-12T05:24:56;101433.22;;;20.23;74.33
69574;BME280;62840;52.366;5.980;2023-08-12T05:27:22;101429.16;;;20.27;74.63
69574;BME280;62840;52.366;5.980;2023-08-12T05:29:47;101426.06;;;20.30;74.68
69574;BME280;62840;52.366;5.980;2023-08-12T05:32:13;101408.81;;;20.31;74.55
69574;BME280;62840;52.366;5.980;2023-08-12T05:34:39;101421.81;;;20.35;74.46
69574;BME280;62840;52.366;5.980;2023-08-12T05:37:05;101415.22;;;20.38;74.75
69574;BME280;62840;52.366;5.980;2023-08-12T05:39:33;101421.47;;;20.38;74.81
69574;BME280;62840;52.366;5.980;2023-08-12T05:41:59;101425.72;;;20.41;74.25
69574;BME280;62840;52.366;5.980;2023-08-12T05:44:24;101437.41;;;20.41;74.52
69574;BME280;62840;52.366;5.980;2023-08-12T05:46:50;101437.88;;;20.45;74.54
69574;BME280;62840;52.366;5.980;2023-08-12T05:49:16;101424.16;;;20.47;74.66
69574;BME280;62840;52.366;5.980;2023-08-12T05:51:42;101422.97;;;20.49;74.85
69574;BME280;62840;52.366;5.980;2023-08-12T05:54:07;101419.22;;;20.50;74.81
69574;BME280;62840;52.366;5.980;2023-08-12T05:56:36;101426.34;;;20.51;74.94
69574;BME280;62840;52.366;5.980;2023-08-12T05:59:01;101429.72;;;20.53;74.65
69574;BME280;62840;52.366;5.980;2023-08-12T06:01:27;101430.56;;;20.54;74.54
69574;BME280;62840;52.366;5.980;2023-08-12T06:03:53;101414.97;;;20.56;74.67
69574;BME280;62840;52.366;5.980;2023-08-12T06:06:19;101414.81;;;20.57;74.80
69574;BME280;62840;52.366;5.980;2023-08-12T06:08:44;101427.31;;;20.58;74.48
69574;BME280;62840;52.366;5.980;2023-08-12T06:11:10;101432.38;;;20.61;74.70
69574;BME280;62840;52.366;5.980;2023-08-12T06:13:38;101430.31;;;20.63;74.95
69574;BME280;62840;52.366;5.980;2023-08-12T06:16:04;101424.91;;;20.63;74.42
69574;BME280;62840;52.366;5.980;2023-08-12T06:18:30;101422.03;;;20.65;74.89
69574;BME280;62840;52.366;5.980;2023-08-12T06:20:56;101421.19;;;20.65;74.92
69574;BME280;62840;52.366;5.980;2023-08-12T06:23:21;101418.47;;;20.65;74.59
69574;BME280;62840;52.366;5.980;2023-08-12T06:25:47;101422.84;;;20.66;74.76
69574;BME280;62840;52.366;5.980;2023-08-12T06:28:13;101423.91;;;20.65;74.86
69574;BME280;62840;52.366;5.980;2023-08-12T06:30:44;101415.78;;;20.65;74.73
69574;BME280;62840;52.366;5.980;2023-08-12T06:33:10;101416.59;;;20.65;74.76
69574;BME280;62840;52.366;5.980;2023-08-12T06:35:36;101419.16;;;20.67;74.96
69574;BME280;62840;52.366;5.980;2023-08-12T06:38:02;101413.72;;;20.67;74.73
69574;BME280;62840;52.366;5.980;2023-08-12T06:40:28;101412.88;;;20.66;75.21
69574;BME280;62840;52.366;5.980;2023-08-12T06:42:54;101409.97;;;20.68;75.37
69574;BME280;62840;52.366;5.980;2023-08-12T06:45:19;101409.13;;;20.67;75.35
69574;BME280;62840;52.366;5.980;2023-08-12T06:47:47;101399.97;;;20.68;74.80
69574;BME280;62840;52.366;5.980;2023-08-12T06:50:13;101408.97;;;20.69;74.68
69574;BME280;62840;52.366;5.980;2023-08-12T06:52:39;101406.25;;;20.69;75.07
69574;BME280;62840;52.366;5.980;2023-08-12T06:55:06;101408.97;;;20.69;75.23
69574;BME280;62840;52.366;5.980;2023-08-12T06:57:32;101408.09;;;20.68;74.99
69574;BME280;62840;52.366;5.980;2023-08-12T06:59:57;101404.56;;;20.68;75.23
69574;BME280;62840;52.366;5.980;2023-08-12T07:02:23;101403.72;;;20.67;75.47
69574;BME280;62840;52.366;5.980;2023-08-12T07:04:51;101398.28;;;20.67;75.59
69574;BME280;62840;52.366;5.980;2023-08-12T07:07:17;101397.47;;;20.67;75.72
69574;BME280;62840;52.366;5.980;2023-08-12T07:09:43;101399.13;;;20.68;75.90
69574;BME280;62840;52.366;5.980;2023-08-12T07:12:08;101396.25;;;20.69;75.71
69574;BME280;62840;52.366;5.980;2023-08-12T07:14:34;101401.69;;;20.69;75.22
69574;BME280;62840;52.366;5.980;2023-08-12T07:17:00;101401.50;;;20.71;75.74
69574;BME280;62840;52.366;5.980;2023-08-12T07:19:26;101394.22;;;20.71;75.46
69574;BME280;62840;52.366;5.980;2023-08-12T07:21:55;101400.47;;;20.72;75.54
69574;BME280;62840;52.366;5.980;2023-08-12T07:24:20;101398.59;;;20.72;75.55
69574;BME280;62840;52.366;5.980;2023-08-12T07:26:46;101396.72;;;20.73;75.39
69574;BME280;62840;52.366;5.980;2023-08-12T07:29:12;101393.00;;;20.74;75.44
69574;BME280;62840;52.366;5.980;2023-08-12T07:31:38;101392.16;;;20.73;75.49
69574;BME280;62840;52.366;5.980;2023-08-12T07:34:04;101390.28;;;20.74;75.30
69574;BME280;62840;52.366;5.980;2023-08-12T07:36:30;101385.88;;;20.73;75.75
69574;BME280;62840;52.366;5.980;2023-08-12T07:38:59;101385.69;;;20.74;75.56
69574;BME280;62840;52.366;5.980;2023-08-12T07:41:25;101387.56;;;20.74;75.43
69574;BME280;62840;52.366;5.980;2023-08-12T07:43:50;101388.59;;;20.73;75.52
69574;BME280;62840;52.366;5.980;2023-08-12T07:46:16;101382.53;;;20.71;75.74
69574;BME280;62840;52.366;5.980;2023-08-12T07:48:42;101389.63;;;20.72;75.44
69574;BME280;62840;52.366;5.980;2023-08-12T07:51:08;101385.25;;;20.71;75.72
69574;BME280;62840;52.366;5.980;2023-08-12T07:53:33;101389.63;;;20.72;75.99
69574;BME280;62840;52.366;5.980;2023-08-12T07:56:02;101390.66;;;20.71;75.63
69574;BME280;62840;52.366;5.980;2023-08-12T07:58:28;101387.94;;;20.71;76.02
69574;BME280;62840;52.366;5.980;2023-08-12T08:00:54;101380.81;;;20.70;75.77
69574;BME280;62840;52.366;5.980;2023-08-12T08:03:20;101368.31;;;20.69;75.49
69574;BME280;62840;52.366;5.980;2023-08-12T08:05:46;101364.94;;;20.67;75.98
69574;BME280;62840;52.366;5.980;2023-08-12T08:08:12;101372.41;;;20.65;75.86
69574;BME280;62840;52.366;5.980;2023-08-12T08:10:38;101368.00;;;20.63;76.00
69574;BME280;62840;52.366;5.980;2023-08-12T08:13:06;101368.00;;;20.63;75.58
69574;BME280;62840;52.366;5.980;2023-08-12T08:15:32;101360.88;;;20.62;75.53
69574;BME280;62840;52.366;5.980;2023-08-12T08:17:57;101368.19;;;20.62;75.66
69574;BME280;62840;52.366;5.980;2023-08-12T08:20:23;101367.53;;;20.60;76.09
69574;BME280;62840;52.366;5.980;2023-08-12T08:22:49;101363.97;;;20.59;75.61
69574;BME280;62840;52.366;5.980;2023-08-12T08:25:15;101360.41;;;20.59;75.95
69574;BME280;62840;52.366;5.980;2023-08-12T08:27:40;101360.59;;;20.57;75.94
69574;BME280;62840;52.366;5.980;2023-08-12T08:30:10;101357.22;;;20.55;76.17
69574;BME280;62840;52.366;5.980;2023-08-12T08:32:36;101354.69;;;20.54;75.87
69574;BME280;62840;52.366;5.980;2023-08-12T08:35:02;101354.69;;;20.54;75.90
69574;BME280;62840;52.366;5.980;2023-08-12T08:37:28;101354.84;;;20.52;76.26
69574;BME280;62840;52.366;5.980;2023-08-12T08:39:54;101349.63;;;20.51;76.25
69574;BME280;62840;52.366;5.980;2023-08-12T08:42:20;101354.19;;;20.50;76.01
69574;BME280;62840;52.366;5.980;2023-08-12T08:44:48;101350.47;;;20.51;75.86
69574;BME280;62840;52.366;5.980;2023-08-12T08:47:24;101348.78;;;20.50;76.30
69574;BME280;62840;52.366;5.980;2023-08-12T08:49:52;101344.22;;;20.51;76.22
69574;BME280;62840;52.366;5.980;2023-08-12T08:52:20;101352.16;;;20.52;76.26
69574;BME280;62840;52.366;5.980;2023-08-12T08:54:48;101358.59;;;20.51;76.24
69574;BME280;62840;52.366;5.980;2023-08-12T08:57:14;101348.78;;;20.50;75.85
69574;BME280;62840;52.366;5.980;2023-08-12T08:59:40;101348.13;;;20.48;75.87
69574;BME280;62840;52.366;5.980;2023-08-12T09:02:13;101350.47;;;20.51;75.74
69574;BME280;62840;52.366;5.980;2023-08-12T09:04:45;101340.84;;;20.49;76.28
69574;BME280;62840;52.366;5.980;2023-08-12T09:07:12;101340.00;;;20.48;75.91
69574;BME280;62840;52.366;5.980;2023-08-12T09:12:08;101345.06;;;20.51;75.74
69574;BME280;62840;52.366;5.980;2023-08-12T09:14:37;101343.00;;;20.53;76.01
69574;BME280;62840;52.366;5.980;2023-08-12T09:17:03;101347.38;;;20.54;75.68
69574;BME280;62840;52.366;5.980;2023-08-12T09:19:29;101340.97;;;20.55;76.01
69574;BME280;62840;52.366;5.980;2023-08-12T09:21:58;101347.03;;;20.57;76.12
69574;BME280;62840;52.366;5.980;2023-08-12T09:24:24;101354.13;;;20.58;75.60
69574;BME280;62840;52.366;5.980;2023-08-12T09:26:51;101354.81;;;20.60;75.91
69574;BME280;62840;52.366;5.980;2023-08-12T09:29:17;101356.47;;;20.61;75.55
69574;BME280;62840;52.366;5.980;2023-08-12T09:31:42;101359.03;;;20.63;75.69
69574;BME280;62840;52.366;5.980;2023-08-12T09:34:08;101358.84;;;20.65;76.06
69574;BME280;62840;52.366;5.980;2023-08-12T09:36:34;101363.44;;;20.64;76.01
69574;BME280;62840;52.366;5.980;2023-08-12T09:39:05;101364.28;;;20.65;76.18
69574;BME280;62840;52.366;5.980;2023-08-12T09:41:32;101357.81;;;20.66;75.77
69574;BME280;62840;52.366;5.980;2023-08-12T09:43:58;101362.22;;;20.67;76.01
69574;BME280;62840;52.366;5.980;2023-08-12T09:46:24;101353.72;;;20.70;76.19
69574;BME280;62840;52.366;5.980;2023-08-12T09:48:50;101357.75;;;20.74;76.31
69574;BME280;62840;52.366;5.980;2023-08-12T09:51:16;101358.44;;;20.76;76.33
69574;BME280;62840;52.366;5.980;2023-08-12T09:53:42;101360.09;;;20.77;76.21
69574;BME280;62840;52.366;5.980;2023-08-12T09:56:11;101369.28;;;20.76;76.14
69574;BME280;62840;52.366;5.980;2023-08-12T09:58:39;101367.56;;;20.75;76.23
69574;BME280;62840;52.366;5.980;2023-08-12T10:01:08;101366.56;;;20.76;76.50
69574;BME280;62840;52.366;5.980;2023-08-12T10:03:36;101372.81;;;20.76;75.98
69574;BME280;62840;52.366;5.980;2023-08-12T10:06:02;101379.75;;;20.79;75.98
69574;BME280;62840;52.366;5.980;2023-08-12T10:08:31;101366.19;;;20.79;76.35
69574;BME280;62840;52.366;5.980;2023-08-12T10:11:00;101361.41;;;20.81;76.38
69574;BME280;62840;52.366;5.980;2023-08-12T10:13:29;101355.16;;;20.80;76.48
69574;BME280;62840;52.366;5.980;2023-08-12T10:15:55;101343.94;;;20.83;76.77
69574;BME280;62840;52.366;5.980;2023-08-12T10:18:22;101319.38;;;20.85;76.61
69574;BME280;62840;52.366;5.980;2023-08-12T10:20:50;101315.63;;;20.86;76.84
69574;BME280;62840;52.366;5.980;2023-08-12T10:23:17;101332.56;;;20.88;76.28
69574;BME280;62840;52.366;5.980;2023-08-12T10:25:44;101349.13;;;20.93;76.89
69574;BME280;62840;52.366;5.980;2023-08-12T10:28:10;101354.19;;;20.96;76.96
69574;BME280;62840;52.366;5.980;2023-08-12T10:30:39;101360.94;;;21.00;76.52
69574;BME280;62840;52.366;5.980;2023-08-12T10:33:06;101369.72;;;21.02;76.74
69574;BME280;62840;52.366;5.980;2023-08-12T10:35:44;101382.25;;;21.03;76.70
69574;BME280;62840;52.366;5.980;2023-08-12T10:38:14;101400.94;;;20.98;76.21
69574;BME280;62840;52.366;5.980;2023-08-12T10:40:42;101407.09;;;20.92;76.27
69574;BME280;62840;52.366;5.980;2023-08-12T10:43:08;101411.06;;;20.81;75.50
69574;BME280;62840;52.366;5.980;2023-08-12T10:45:47;101411.69;;;20.69;75.46
69574;BME280;62840;52.366;5.980;2023-08-12T10:48:17;101412.09;;;20.57;75.19
69574;BME280;62840;52.366;5.980;2023-08-12T10:50:45;101415.88;;;20.48;75.61
69574;BME280;62840;52.366;5.980;2023-08-12T10:53:24;101403.03;;;20.42;75.33
69574;BME280;62840;52.366;5.980;2023-08-12T10:55:54;101400.63;;;20.39;75.50
69574;BME280;62840;52.366;5.980;2023-08-12T10:58:26;101390.16;;;20.36;75.43
69574;BME280;62840;52.366;5.980;2023-08-12T11:00:56;101392.19;;;20.34;75.16
69574;BME280;62840;52.366;5.980;2023-08-12T11:03:23;101386.47;;;20.29;75.29
69574;BME280;62840;52.366;5.980;2023-08-12T11:05:49;101389.19;;;20.29;75.58
69574;BME280;62840;52.366;5.980;2023-08-12T11:08:15;101403.09;;;20.26;75.43
69574;BME280;62840;52.366;5.980;2023-08-12T11:10:41;101396.66;;;20.27;75.81
69574;BME280;62840;52.366;5.980;2023-08-12T11:13:08;101391.22;;;20.27;75.49
69574;BME280;62840;52.366;5.980;2023-08-12T11:15:35;101411.03;;;20.27;75.74
69574;BME280;62840;52.366;5.980;2023-08-12T11:18:07;101409.16;;;20.28;75.62
69574;BME280;62840;52.366;5.980;2023-08-12T11:20:34;101407.13;;;20.30;75.43
69574;BME280;62840;52.366;5.980;2023-08-12T11:23:03;101420.50;;;20.31;75.62
69574;BME280;62840;52.366;5.980;2023-08-12T11:25:31;101414.91;;;20.33;75.44
69574;BME280;62840;52.366;5.980;2023-08-12T11:27:58;101416.41;;;20.35;75.88
69574;BME280;62840;52.366;5.980;2023-08-12T11:30:25;101422.31;;;20.39;75.72
69574;BME280;62840;52.366;5.980;2023-08-12T11:32:53;101418.25;;;20.43;76.11
69574;BME280;62840;52.366;5.980;2023-08-12T11:35:23;101412.50;;;20.46;75.89
69574;BME280;62840;52.366;5.980;2023-08-12T11:37:50;101421.28;;;20.48;75.50
69574;BME280;62840;52.366;5.980;2023-08-12T11:40:18;101421.28;;;20.48;75.64
69574;BME280;62840;52.366;5.980;2023-08-12T11:42:47;101427.72;;;20.47;75.10
69574;BME280;62840;52.366;5.980;2023-08-12T11:45:17;101430.44;;;20.47;75.13
69574;BME280;62840;52.366;5.980;2023-08-12T11:47:44;101441.25;;;20.47;75.29
69574;BME280;62840;52.366;5.980;2023-08-12T11:50:11;101428.75;;;20.46;75.17
69574;BME280;62840;52.366;5.980;2023-08-12T11:52:40;101437.88;;;20.45;75.70
69574;BME280;62840;52.366;5.980;2023-08-12T11:55:07;101436.22;;;20.44;74.97
69574;BME280;62840;52.366;5.980;2023-08-12T11:57:34;101430.78;;;20.44;75.27
69574;BME280;62840;52.366;5.980;2023-08-12T12:00:00;101428.25;;;20.42;75.11
69574;BME280;62840;52.366;5.980;2023-08-12T12:02:26;101429.41;;;20.40;74.85
69574;BME280;62840;52.366;5.980;2023-08-12T12:04:52;101428.75;;;20.38;74.82
69574;BME280;62840;52.366;5.980;2023-08-12T12:07:19;101424.38;;;20.37;74.72
69574;BME280;62840;52.366;5.980;2023-08-12T12:09:50;101430.44;;;20.39;75.19
69574;BME280;62840;52.366;5.980;2023-08-12T12:12:16;101434.72;;;20.41;74.98
69574;BME280;62840;52.366;5.980;2023-08-12T12:14:42;101440.44;;;20.47;75.58
69574;BME280;62840;52.366;5.980;2023-08-12T12:17:08;101433.44;;;20.52;75.11
69574;BME280;62840;52.366;5.980;2023-08-12T12:19:34;101433.09;;;20.55;74.82
69574;BME280;62840;52.366;5.980;2023-08-12T12:22:02;101434.59;;;20.58;74.79
69574;BME280;62840;52.366;5.980;2023-08-12T12:24:29;101429.03;;;20.59;75.19
69574;BME280;62840;52.366;5.980;2023-08-12T12:26:58;101426.94;;;20.61;74.91
69574;BME280;62840;52.366;5.980;2023-08-12T12:29:24;101430.31;;;20.63;74.75
69574;BME280;62840;52.366;5.980;2023-08-12T12:31:50;101434.56;;;20.66;75.00
69574;BME280;62840;52.366;5.980;2023-08-12T12:34:15;101431.66;;;20.68;75.29
69574;BME280;62840;52.366;5.980;2023-08-12T12:36:42;101432.31;;;20.70;75.04
69574;BME280;62840;52.366;5.980;2023-08-12T12:39:07;101429.63;;;20.70;74.66
69574;BME280;62840;52.366;5.980;2023-08-12T12:41:33;101435.03;;;20.70;74.64
69574;BME280;62840;52.366;5.980;2023-08-12T12:44:02;101429.63;;;20.70;74.28
69574;BME280;62840;52.366;5.980;2023-08-12T12:46:29;101431.66;;;20.68;74.42
69574;BME280;62840;52.366;5.980;2023-08-12T12:48:55;101431.88;;;20.66;74.28
69574;BME280;62840;52.366;5.980;2023-08-12T12:51:21;101427.97;;;20.60;74.48